sensor_id;sensor_type;location;lat;lon;timestamp;temperature;humidity
51837;DHT22;38941;53.254;6.600;2023-12-04T00:01:35;1.30;99.90
51837;DHT22;38941;53.254;6.600;2023-12-04T00:03:40;-0.10;99.90
51837;DHT22;38941;53.254;6.600;2023-12-04T00:05:58;-0.10;99.90
51837;DHT22;38941;53.254;6.600;2023-12-04T00:07:59;-0.10;99.90
51837;DHT22;38941;53.254;6.600;2023-12-04T00:10:00;-0.10;99.90
51837;DHT22;38941;53.254;6.600;2023-12-04T00:12:01;-0.10;99.90
51837;DHT22;38941;53.254;6.600;2023-12-04T00:14:03;-0.10;99.90
51837;DHT22;38941;53.254;6.600;2023-12-04T00:16:04;-0.10;99.90
51837;DHT22;38941;53.254;6.600;2023-12-04T00:18:08;-0.10;99.90
51837;DHT22;38941;53.254;6.600;2023-12-04T00:20:09;-0.10;99.90
51837;DHT22;38941;53.254;6.600;2023-12-04T00:22:10;-0.10;99.90
51837;DHT22;38941;53.254;6.600;2023-12-04T00:24:20;-0.10;99.90
51837;DHT22;38941;53.254;6.600;2023-12-04T00:26:27;-0.10;99.90
51837;DHT22;38941;53.254;6.600;2023-12-04T00:28:29;-0.10;99.90
51837;DHT22;38941;53.254;6.600;2023-12-04T00:30:39;-0.10;99.90
51837;DHT22;38941;53.254;6.600;2023-12-04T00:32:44;-0.10;99.90
51837;DHT22;38941;53.254;6.600;2023-12-04T00:34:49;-0.10;99.90
51837;DHT22;38941;53.254;6.600;2023-12-04T00:36:50;-0.10;99.90
51837;DHT22;38941;53.254;6.600;2023-12-04T00:38:53;-0.10;99.90
51837;DHT22;38941;53.254;6.600;2023-12-04T00:40:55;-0.10;99.90
51837;DHT22;38941;53.254;6.600;2023-12-04T00:42:56;-0.10;99.90
51837;DHT22;38941;53.254;6.600;2023-12-04T00:44:57;-0.10;99.90
51837;DHT22;38941;53.254;6.600;2023-12-04T00:47:05;-0.10;99.90
51837;DHT22;38941;53.254;6.600;2023-12-04T00:49:08;0.10;99.90
51837;DHT22;38941;53.254;6.600;2023-12-04T00:51:17;-0.10;99.90
51837;DHT22;38941;53.254;6.600;2023-12-04T00:53:18;-0.10;99.90
51837;DHT22;38941;53.254;6.600;2023-12-04T00:55:25;-0.10;99.90
51837;DHT22;38941;53.254;6.600;2023-12-04T00:57:28;-0.20;99.90
51837;DHT22;38941;53.254;6.600;2023-12-04T00:59:35;-0.10;99.90
51837;DHT22;38941;53.254;6.600;2023-12-04T01:01:47;-0.10;99.90
51837;DHT22;38941;53.254;6.600;2023-12-04T01:03:48;-0.20;99.90
51837;DHT22;38941;53.254;6.600;2023-12-04T01:05:53;-0.10;99.90
51837;DHT22;38941;53.254;6.600;2023-12-04T01:07:54;-0.20;99.90
51837;DHT22;38941;53.254;6.600;2023-12-04T01:10:00;-0.10;99.90
51837;DHT22;38941;53.254;6.600;2023-12-04T01:12:00;-0.20;99.90
51837;DHT22;38941;53.254;6.600;2023-12-04T01:14:02;-0.20;99.90
51837;DHT22;38941;53.254;6.600;2023-12-04T01:16:16;-0.20;99.90
51837;DHT22;38941;53.254;6.600;2023-12-04T01:18:18;-0.20;99.90
51837;DHT22;38941;53.254;6.600;2023-12-04T01:20:32;-0.20;99.90
51837;DHT22;38941;53.254;6.600;2023-12-04T01:22:49;-0.20;99.90
51837;DHT22;38941;53.254;6.600;2023-12-04T01:24:59;-0.20;99.90
51837;DHT22;38941;53.254;6.600;2023-12-04T01:27:07;-0.20;99.90
51837;DHT22;38941;53.254;6.600;2023-12-04T01:29:36;-0.20;99.90
51837;DHT22;38941;53.254;6.600;2023-12-04T01:31:53;-0.20;99.90
51837;DHT22;38941;53.254;6.600;2023-12-04T01:34:04;-0.20;99.90
51837;DHT22;38941;53.254;6.600;2023-12-04T01:36:20;-0.20;99.90
51837;DHT22;38941;53.254;6.600;2023-12-04T01:38:21;-0.20;99.90
51837;DHT22;38941;53.254;6.600;2023-12-04T01:40:23;-0.20;99.90
51837;DHT22;38941;53.254;6.600;2023-12-04T01:42:27;-0.20;99.90
51837;DHT22;38941;53.254;6.600;2023-12-04T01:44:42;-0.20;99.90
51837;DHT22;38941;53.254;6.600;2023-12-04T01:46:43;-0.20;99.90
51837;DHT22;38941;53.254;6.600;2023-12-04T01:48:49;-0.20;99.90
51837;DHT22;38941;53.254;6.600;2023-12-04T01:50:50;-0.20;99.90
51837;DHT22;38941;53.254;6.600;2023-12-04T01:52:59;-0.10;99.90
51837;DHT22;38941;53.254;6.600;2023-12-04T01:55:15;-0.20;99.90
51837;DHT22;38941;53.254;6.600;2023-12-04T01:57:22;-0.10;99.90
51837;DHT22;38941;53.254;6.600;2023-12-04T01:59:29;-0.20;99.90
51837;DHT22;38941;53.254;6.600;2023-12-04T02:01:31;-0.20;99.90
51837;DHT22;38941;53.254;6.600;2023-12-04T02:03:40;-0.10;99.90
51837;DHT22;38941;53.254;6.600;2023-12-04T02:05:45;-0.20;99.90
51837;DHT22;38941;53.254;6.600;2023-12-04T02:07:47;-0.20;99.90
51837;DHT22;38941;53.254;6.600;2023-12-04T02:09:54;-0.20;99.90
51837;DHT22;38941;53.254;6.600;2023-12-04T02:11:55;-0.20;99.90
51837;DHT22;38941;53.254;6.600;2023-12-04T02:13:56;-0.20;99.90
51837;DHT22;38941;53.254;6.600;2023-12-04T02:16:04;-0.20;99.90
51837;DHT22;38941;53.254;6.600;2023-12-04T02:18:09;-0.10;99.90
51837;DHT22;38941;53.254;6.600;2023-12-04T02:20:21;-0.20;99.90
51837;DHT22;38941;53.254;6.600;2023-12-04T02:22:41;-0.20;99.90
51837;DHT22;38941;53.254;6.600;2023-12-04T02:24:44;-0.20;99.90
51837;DHT22;38941;53.254;6.600;2023-12-04T02:26:54;-0.20;99.90
51837;DHT22;38941;53.254;6.600;2023-12-04T02:29:11;-0.20;99.90
51837;DHT22;38941;53.254;6.600;2023-12-04T02:31:18;-0.20;99.90
51837;DHT22;38941;53.254;6.600;2023-12-04T02:33:33;-0.20;99.90
51837;DHT22;38941;53.254;6.600;2023-12-04T02:35:42;-0.20;99.90
51837;DHT22;38941;53.254;6.600;2023-12-04T02:37:45;-0.20;99.90
51837;DHT22;38941;53.254;6.600;2023-12-04T02:39:46;-0.10;99.90
51837;DHT22;38941;53.254;6.600;2023-12-04T02:41:49;-0.10;99.90
51837;DHT22;38941;53.254;6.600;2023-12-04T02:43:51;-0.20;99.90
51837;DHT22;38941;53.254;6.600;2023-12-04T02:45:54;-0.10;99.90
51837;DHT22;38941;53.254;6.600;2023-12-04T02:47:56;-0.20;99.90
51837;DHT22;38941;53.254;6.600;2023-12-04T02:49:58;-0.20;99.90
51837;DHT22;38941;53.254;6.600;2023-12-04T02:52:08;-0.20;99.90
51837;DHT22;38941;53.254;6.600;2023-12-04T02:54:10;-0.10;99.90
51837;DHT22;38941;53.254;6.600;2023-12-04T02:56:14;-0.20;99.90
51837;DHT22;38941;53.254;6.600;2023-12-04T02:58:15;-0.20;99.90
51837;DHT22;38941;53.254;6.600;2023-12-04T03:00:16;-0.20;99.90
51837;DHT22;38941;53.254;6.600;2023-12-04T03:02:28;-0.10;99.90
51837;DHT22;38941;53.254;6.600;2023-12-04T03:04:31;-0.20;99.90
51837;DHT22;38941;53.254;6.600;2023-12-04T03:06:34;-0.10;99.90
51837;DHT22;38941;53.254;6.600;2023-12-04T03:08:35;-0.10;99.90
51837;DHT22;38941;53.254;6.600;2023-12-04T03:10:44;-0.10;99.90
51837;DHT22;38941;53.254;6.600;2023-12-04T03:12:47;-0.10;99.90
51837;DHT22;38941;53.254;6.600;2023-12-04T03:14:48;-0.10;99.90
51837;DHT22;38941;53.254;6.600;2023-12-04T03:17:05;-0.10;99.90
51837;DHT22;38941;53.254;6.600;2023-12-04T03:19:16;-0.10;99.90
51837;DHT22;38941;53.254;6.600;2023-12-04T03:21:20;-0.10;99.90
51837;DHT22;38941;53.254;6.600;2023-12-04T03:23:23;-0.10;99.90
51837;DHT22;38941;53.254;6.600;2023-12-04T03:25:23;-0.10;99.90
51837;DHT22;38941;53.254;6.600;2023-12-04T03:27:30;-0.10;99.90
51837;DHT22;38941;53.254;6.600;2023-12-04T03:29:35;0.00;99.90
51837;DHT22;38941;53.254;6.600;2023-12-04T03:31:35;0.00;99.90
51837;DHT22;38941;53.254;6.600;2023-12-04T03:33:39;0.00;99.90
51837;DHT22;38941;53.254;6.600;2023-12-04T03:35:40;0.00;99.90
51837;DHT22;38941;53.254;6.600;2023-12-04T03:37:42;0.00;99.90
51837;DHT22;38941;53.254;6.600;2023-12-04T03:39:46;0.00;99.90
51837;DHT22;38941;53.254;6.600;2023-12-04T03:41:48;0.00;99.90
51837;DHT22;38941;53.254;6.600;2023-12-04T03:43:50;0.00;99.90
51837;DHT22;38941;53.254;6.600;2023-12-04T03:46:09;0.00;99.90
51837;DHT22;38941;53.254;6.600;2023-12-04T03:48:15;0.00;99.90
51837;DHT22;38941;53.254;6.600;2023-12-04T03:50:27;0.00;99.90
51837;DHT22;38941;53.254;6.600;2023-12-04T03:52:33;0.00;99.90
51837;DHT22;38941;53.254;6.600;2023-12-04T03:54:36;0.00;99.90
51837;DHT22;38941;53.254;6.600;2023-12-04T03:56:44;0.00;99.90
51837;DHT22;38941;53.254;6.600;2023-12-04T03:58:54;-0.10;99.90
51837;DHT22;38941;53.254;6.600;2023-12-04T04:00:57;0.00;99.90
51837;DHT22;38941;53.254;6.600;2023-12-04T04:03:00;0.10;99.90
51837;DHT22;38941;53.254;6.600;2023-12-04T04:05:11;0.00;99.90
51837;DHT22;38941;53.254;6.600;2023-12-04T04:07:16;0.00;99.90
51837;DHT22;38941;53.254;6.600;2023-12-04T04:09:19;0.00;99.90
51837;DHT22;38941;53.254;6.600;2023-12-04T04:11:21;0.10;99.90
51837;DHT22;38941;53.254;6.600;2023-12-04T04:13:27;0.10;99.90
51837;DHT22;38941;53.254;6.600;2023-12-04T04:15:28;0.10;99.90
51837;DHT22;38941;53.254;6.600;2023-12-04T04:17:31;0.10;99.90
51837;DHT22;38941;53.254;6.600;2023-12-04T04:19:42;0.10;99.90
51837;DHT22;38941;53.254;6.600;2023-12-04T04:22:00;1.00;99.90
51837;DHT22;38941;53.254;6.600;2023-12-04T04:24:06;0.10;99.90
51837;DHT22;38941;53.254;6.600;2023-12-04T04:26:07;0.40;99.90
51837;DHT22;38941;53.254;6.600;2023-12-04T04:28:14;0.10;99.90
51837;DHT22;38941;53.254;6.600;2023-12-04T04:30:16;0.10;99.90
51837;DHT22;38941;53.254;6.600;2023-12-04T04:32:25;0.10;99.90
51837;DHT22;38941;53.254;6.600;2023-12-04T04:34:36;0.00;99.90
51837;DHT22;38941;53.254;6.600;2023-12-04T04:36:39;0.10;99.90
51837;DHT22;38941;53.254;6.600;2023-12-04T04:38:40;0.10;99.90
51837;DHT22;38941;53.254;6.600;2023-12-04T04:40:50;-0.10;99.90
51837;DHT22;38941;53.254;6.600;2023-12-04T04:42:57;0.10;99.90
51837;DHT22;38941;53.254;6.600;2023-12-04T04:45:16;1.10;99.90
51837;DHT22;38941;53.254;6.600;2023-12-04T04:47:19;0.10;99.90
51837;DHT22;38941;53.254;6.600;2023-12-04T04:49:20;0.10;99.90
51837;DHT22;38941;53.254;6.600;2023-12-04T04:51:32;0.10;99.90
51837;DHT22;38941;53.254;6.600;2023-12-04T04:53:42;0.10;99.90
51837;DHT22;38941;53.254;6.600;2023-12-04T04:55:43;0.10;99.90
51837;DHT22;38941;53.254;6.600;2023-12-04T04:57:46;0.10;99.90
51837;DHT22;38941;53.254;6.600;2023-12-04T04:59:50;0.10;99.90
51837;DHT22;38941;53.254;6.600;2023-12-04T05:01:57;0.10;99.90
51837;DHT22;38941;53.254;6.600;2023-12-04T05:04:06;0.10;99.90
51837;DHT22;38941;53.254;6.600;2023-12-04T05:06:11;1.20;99.90
51837;DHT22;38941;53.254;6.600;2023-12-04T05:08:13;0.10;99.90
51837;DHT22;38941;53.254;6.600;2023-12-04T05:10:14;0.10;99.90
51837;DHT22;38941;53.254;6.600;2023-12-04T05:12:15;0.10;99.90
51837;DHT22;38941;53.254;6.600;2023-12-04T05:14:18;0.10;99.90
51837;DHT22;38941;53.254;6.600;2023-12-04T05:16:22;0.10;99.90
51837;DHT22;38941;53.254;6.600;2023-12-04T05:18:28;0.10;99.90
51837;DHT22;38941;53.254;6.600;2023-12-04T05:20:31;0.10;99.90
51837;DHT22;38941;53.254;6.600;2023-12-04T05:22:37;0.10;99.90
51837;DHT22;38941;53.254;6.600;2023-12-04T05:24:45;0.10;99.90
51837;DHT22;38941;53.254;6.600;2023-12-04T05:26:47;1.10;99.90
51837;DHT22;38941;53.254;6.600;2023-12-04T05:28:50;0.10;99.90
51837;DHT22;38941;53.254;6.600;2023-12-04T05:30:55;0.10;99.90
51837;DHT22;38941;53.254;6.600;2023-12-04T05:33:02;0.10;99.90
51837;DHT22;38941;53.254;6.600;2023-12-04T05:35:10;0.10;99.90
51837;DHT22;38941;53.254;6.600;2023-12-04T05:37:11;0.10;99.90
51837;DHT22;38941;53.254;6.600;2023-12-04T05:39:20;0.10;99.90
51837;DHT22;38941;53.254;6.600;2023-12-04T05:41:23;0.10;99.90
51837;DHT22;38941;53.254;6.600;2023-12-04T05:43:42;0.10;99.90
51837;DHT22;38941;53.254;6.600;2023-12-04T05:45:47;0.10;99.90
51837;DHT22;38941;53.254;6.600;2023-12-04T05:47:50;0.20;99.90
51837;DHT22;38941;53.254;6.600;2023-12-04T05:49:58;0.10;99.90
51837;DHT22;38941;53.254;6.600;2023-12-04T05:51:59;0.10;99.90
51837;DHT22;38941;53.254;6.600;2023-12-04T05:54:01;0.10;99.90
51837;DHT22;38941;53.254;6.600;2023-12-04T05:56:09;0.10;99.90
51837;DHT22;38941;53.254;6.600;2023-12-04T05:58:24;0.20;99.90
51837;DHT22;38941;53.254;6.600;2023-12-04T06:00:25;0.10;99.90
51837;DHT22;38941;53.254;6.600;2023-12-04T06:02:42;0.20;99.90
51837;DHT22;38941;53.254;6.600;2023-12-04T06:04:44;0.10;99.90
51837;DHT22;38941;53.254;6.600;2023-12-04T06:06:50;1.40;99.90
51837;DHT22;38941;53.254;6.600;2023-12-04T06:08:56;0.10;99.90
51837;DHT22;38941;53.254;6.600;2023-12-04T06:10:58;0.20;99.90
51837;DHT22;38941;53.254;6.600;2023-12-04T06:12:59;0.10;99.90
51837;DHT22;38941;53.254;6.600;2023-12-04T06:15:00;0.20;99.90
51837;DHT22;38941;53.254;6.600;2023-12-04T06:17:02;0.20;99.90
51837;DHT22;38941;53.254;6.600;2023-12-04T06:19:09;0.20;99.90
51837;DHT22;38941;53.254;6.600;2023-12-04T06:21:20;0.20;99.90
51837;DHT22;38941;53.254;6.600;2023-12-04T06:23:23;0.20;99.90
51837;DHT22;38941;53.254;6.600;2023-12-04T06:25:24;0.20;99.90
51837;DHT22;38941;53.254;6.600;2023-12-04T06:27:28;0.20;99.90
51837;DHT22;38941;53.254;6.600;2023-12-04T06:29:35;0.20;99.90
51837;DHT22;38941;53.254;6.600;2023-12-04T06:31:38;0.20;99.90
51837;DHT22;38941;53.254;6.600;2023-12-04T06:33:51;0.10;99.90
51837;DHT22;38941;53.254;6.600;2023-12-04T06:36:08;0.20;99.90
51837;DHT22;38941;53.254;6.600;2023-12-04T06:38:14;0.20;99.90
51837;DHT22;38941;53.254;6.600;2023-12-04T06:40:21;0.20;99.90
51837;DHT22;38941;53.254;6.600;2023-12-04T06:42:22;0.20;99.90
51837;DHT22;38941;53.254;6.600;2023-12-04T06:44:24;0.20;99.90
51837;DHT22;38941;53.254;6.600;2023-12-04T06:46:31;0.20;99.90
51837;DHT22;38941;53.254;6.600;2023-12-04T06:48:31;0.10;99.90
51837;DHT22;38941;53.254;6.600;2023-12-04T06:50:38;0.20;99.90
51837;DHT22;38941;53.254;6.600;2023-12-04T06:52:59;1.30;99.90
51837;DHT22;38941;53.254;6.600;2023-12-04T06:55:04;0.20;99.90
51837;DHT22;38941;53.254;6.600;2023-12-04T06:57:18;0.20;99.90
51837;DHT22;38941;53.254;6.600;2023-12-04T06:59:21;0.50;99.90
51837;DHT22;38941;53.254;6.600;2023-12-04T07:01:34;0.20;99.90
51837;DHT22;38941;53.254;6.600;2023-12-04T07:03:42;0.20;99.90
51837;DHT22;38941;53.254;6.600;2023-12-04T07:05:45;0.20;99.90
51837;DHT22;38941;53.254;6.600;2023-12-04T07:07:47;-0.60;99.90
51837;DHT22;38941;53.254;6.600;2023-12-04T07:09:54;0.20;99.90
51837;DHT22;38941;53.254;6.600;2023-12-04T07:12:04;0.20;99.90
51837;DHT22;38941;53.254;6.600;2023-12-04T07:14:06;0.20;99.90
51837;DHT22;38941;53.254;6.600;2023-12-04T07:16:18;0.10;99.90
51837;DHT22;38941;53.254;6.600;2023-12-04T07:18:22;0.10;99.90
51837;DHT22;38941;53.254;6.600;2023-12-04T07:20:23;0.20;99.90
51837;DHT22;38941;53.254;6.600;2023-12-04T07:22:26;0.20;99.90
51837;DHT22;38941;53.254;6.600;2023-12-04T07:24:35;0.20;99.90
51837;DHT22;38941;53.254;6.600;2023-12-04T07:26:37;0.20;99.90
51837;DHT22;38941;53.254;6.600;2023-12-04T07:28:41;0.20;99.90
51837;DHT22;38941;53.254;6.600;2023-12-04T07:30:42;0.20;99.90
51837;DHT22;38941;53.254;6.600;2023-12-04T07:32:59;0.10;99.90
51837;DHT22;38941;53.254;6.600;2023-12-04T07:35:03;0.20;99.90
51837;DHT22;38941;53.254;6.600;2023-12-04T07:37:08;0.10;99.90
51837;DHT22;38941;53.254;6.600;2023-12-04T07:39:11;0.20;99.90
51837;DHT22;38941;53.254;6.600;2023-12-04T07:41:27;0.20;99.90
51837;DHT22;38941;53.254;6.600;2023-12-04T07:43:28;0.20;99.90
51837;DHT22;38941;53.254;6.600;2023-12-04T07:45:41;0.20;99.90
51837;DHT22;38941;53.254;6.600;2023-12-04T07:47:42;0.20;99.90
51837;DHT22;38941;53.254;6.600;2023-12-04T07:52:34;0.20;99.90
51837;DHT22;38941;53.254;6.600;2023-12-04T07:55:02;0.20;99.90
51837;DHT22;38941;53.254;6.600;2023-12-04T07:57:04;0.20;99.90
51837;DHT22;38941;53.254;6.600;2023-12-04T07:59:14;0.20;99.90
51837;DHT22;38941;53.254;6.600;2023-12-04T08:01:23;0.20;99.90
51837;DHT22;38941;53.254;6.600;2023-12-04T08:03:24;0.20;99.90
51837;DHT22;38941;53.254;6.600;2023-12-04T08:05:33;0.20;99.90
51837;DHT22;38941;53.254;6.600;2023-12-04T08:07:37;0.30;99.90
51837;DHT22;38941;53.254;6.600;2023-12-04T08:09:40;0.20;99.90
51837;DHT22;38941;53.254;6.600;2023-12-04T08:11:43;0.30;99.90
51837;DHT22;38941;53.254;6.600;2023-12-04T08:13:45;0.30;99.90
51837;DHT22;38941;53.254;6.600;2023-12-04T08:15:49;0.30;99.90
51837;DHT22;38941;53.254;6.600;2023-12-04T08:17:51;0.30;99.90
51837;DHT22;38941;53.254;6.600;2023-12-04T08:20:00;0.30;99.90
51837;DHT22;38941;53.254;6.600;2023-12-04T08:22:01;0.40;99.90
51837;DHT22;38941;53.254;6.600;2023-12-04T08:24:21;0.30;99.90
51837;DHT22;38941;53.254;6.600;2023-12-04T08:26:25;0.40;99.90
51837;DHT22;38941;53.254;6.600;2023-12-04T08:28:33;0.40;99.90
51837;DHT22;38941;53.254;6.600;2023-12-04T08:30:38;0.50;99.90
51837;DHT22;38941;53.254;6.600;2023-12-04T08:32:58;0.50;99.90
51837;DHT22;38941;53.254;6.600;2023-12-04T08:35:01;0.50;99.90
51837;DHT22;38941;53.254;6.600;2023-12-04T08:37:07;0.50;99.90
51837;DHT22;38941;53.254;6.600;2023-12-04T08:39:30;0.50;99.90
51837;DHT22;38941;53.254;6.600;2023-12-04T08:41:33;0.50;99.90
51837;DHT22;38941;53.254;6.600;2023-12-04T08:43:34;0.50;99.90
51837;DHT22;38941;53.254;6.600;2023-12-04T08:45:41;1.20;99.90
51837;DHT22;38941;53.254;6.600;2023-12-04T08:47:55;0.60;99.90
51837;DHT22;38941;53.254;6.600;2023-12-04T08:49:59;0.60;99.90
51837;DHT22;38941;53.254;6.600;2023-12-04T08:52:00;0.60;99.90
51837;DHT22;38941;53.254;6.600;2023-12-04T08:54:13;1.10;99.90
51837;DHT22;38941;53.254;6.600;2023-12-04T08:56:18;0.60;99.90
51837;DHT22;38941;53.254;6.600;2023-12-04T08:58:21;0.60;99.90
51837;DHT22;38941;53.254;6.600;2023-12-04T09:00:29;0.20;99.90
51837;DHT22;38941;53.254;6.600;2023-12-04T09:02:35;0.70;99.90
51837;DHT22;38941;53.254;6.600;2023-12-04T09:04:37;0.70;99.90
51837;DHT22;38941;53.254;6.600;2023-12-04T09:06:41;0.70;99.90
51837;DHT22;38941;53.254;6.600;2023-12-04T09:08:45;0.70;99.90
51837;DHT22;38941;53.254;6.600;2023-12-04T09:10:48;0.70;99.90
51837;DHT22;38941;53.254;6.600;2023-12-04T09:12:48;1.80;99.90
51837;DHT22;38941;53.254;6.600;2023-12-04T09:14:51;0.80;99.90
51837;DHT22;38941;53.254;6.600;2023-12-04T09:16:53;0.80;99.90
51837;DHT22;38941;53.254;6.600;2023-12-04T09:18:54;0.80;99.90
51837;DHT22;38941;53.254;6.600;2023-12-04T09:20:57;0.80;99.90
51837;DHT22;38941;53.254;6.600;2023-12-04T09:23:03;0.80;99.90
51837;DHT22;38941;53.254;6.600;2023-12-04T09:25:07;0.80;99.90
51837;DHT22;38941;53.254;6.600;2023-12-04T09:27:12;0.80;99.90
51837;DHT22;38941;53.254;6.600;2023-12-04T09:29:16;0.80;99.90
51837;DHT22;38941;53.254;6.600;2023-12-04T09:31:20;0.80;99.90
51837;DHT22;38941;53.254;6.600;2023-12-04T09:33:22;0.80;99.90
51837;DHT22;38941;53.254;6.600;2023-12-04T09:35:23;0.90;99.90
51837;DHT22;38941;53.254;6.600;2023-12-04T09:37:24;0.80;99.90
51837;DHT22;38941;53.254;6.600;2023-12-04T09:39:25;0.80;99.90
51837;DHT22;38941;53.254;6.600;2023-12-04T09:41:27;0.80;99.90
51837;DHT22;38941;53.254;6.600;2023-12-04T09:43:31;0.90;99.90
51837;DHT22;38941;53.254;6.600;2023-12-04T09:45:32;0.90;99.90
51837;DHT22;38941;53.254;6.600;2023-12-04T09:47:42;0.90;99.90
51837;DHT22;38941;53.254;6.600;2023-12-04T09:49:44;1.00;99.90
51837;DHT22;38941;53.254;6.600;2023-12-04T09:51:47;0.90;99.90
51837;DHT22;38941;53.254;6.600;2023-12-04T09:53:50;1.00;99.90
51837;DHT22;38941;53.254;6.600;2023-12-04T09:55:56;1.00;99.90
51837;DHT22;38941;53.254;6.600;2023-12-04T09:57:59;1.00;99.90
51837;DHT22;38941;53.254;6.600;2023-12-04T10:00:14;1.00;99.90
51837;DHT22;38941;53.254;6.600;2023-12-04T10:02:21;1.10;99.90
51837;DHT22;38941;53.254;6.600;2023-12-04T10:04:22;1.10;99.90
51837;DHT22;38941;53.254;6.600;2023-12-04T10:06:27;1.10;99.90
51837;DHT22;38941;53.254;6.600;2023-12-04T10:08:30;1.10;99.90
51837;DHT22;38941;53.254;6.600;2023-12-04T10:10:32;1.20;99.90
51837;DHT22;38941;53.254;6.600;2023-12-04T10:12:35;1.10;99.90
51837;DHT22;38941;53.254;6.600;2023-12-04T10:14:37;1.30;99.90
51837;DHT22;38941;53.254;6.600;2023-12-04T10:16:39;1.30;99.90
51837;DHT22;38941;53.254;6.600;2023-12-04T10:18:40;1.30;99.90
51837;DHT22;38941;53.254;6.600;2023-12-04T10:20:52;1.30;99.90
51837;DHT22;38941;53.254;6.600;2023-12-04T10:22:59;1.40;99.90
51837;DHT22;38941;53.254;6.600;2023-12-04T10:25:14;1.40;99.90
51837;DHT22;38941;53.254;6.600;2023-12-04T10:27:17;1.90;99.90
51837;DHT22;38941;53.254;6.600;2023-12-04T10:29:19;1.50;99.90
51837;DHT22;38941;53.254;6.600;2023-12-04T10:31:23;1.50;99.90
51837;DHT22;38941;53.254;6.600;2023-12-04T10:33:31;1.60;99.90
51837;DHT22;38941;53.254;6.600;2023-12-04T10:35:35;1.60;99.90
51837;DHT22;38941;53.254;6.600;2023-12-04T10:37:38;1.70;99.90
51837;DHT22;38941;53.254;6.600;2023-12-04T10:39:50;1.80;99.90
51837;DHT22;38941;53.254;6.600;2023-12-04T10:42:02;1.80;99.90
51837;DHT22;38941;53.254;6.600;2023-12-04T10:44:04;1.90;99.90
51837;DHT22;38941;53.254;6.600;2023-12-04T10:46:06;1.90;99.90
51837;DHT22;38941;53.254;6.600;2023-12-04T10:48:10;2.00;99.90
51837;DHT22;38941;53.254;6.600;2023-12-04T10:50:12;2.00;99.90
51837;DHT22;38941;53.254;6.600;2023-12-04T10:52:13;2.10;99.90
51837;DHT22;38941;53.254;6.600;2023-12-04T10:54:14;2.10;99.90
51837;DHT22;38941;53.254;6.600;2023-12-04T10:56:21;2.10;99.90
51837;DHT22;38941;53.254;6.600;2023-12-04T10:58:26;2.10;99.90
51837;DHT22;38941;53.254;6.600;2023-12-04T11:00:31;2.20;99.90
51837;DHT22;38941;53.254;6.600;2023-12-04T11:02:34;2.20;99.90
51837;DHT22;38941;53.254;6.600;2023-12-04T11:04:36;2.20;99.90
51837;DHT22;38941;53.254;6.600;2023-12-04T11:06:39;2.30;99.90
51837;DHT22;38941;53.254;6.600;2023-12-04T11:08:43;2.30;99.90
51837;DHT22;38941;53.254;6.600;2023-12-04T11:10:56;2.30;99.90
51837;DHT22;38941;53.254;6.600;2023-12-04T11:13:17;2.40;99.90
51837;DHT22;38941;53.254;6.600;2023-12-04T11:15:23;2.40;99.90
51837;DHT22;38941;53.254;6.600;2023-12-04T11:17:27;2.40;99.90
51837;DHT22;38941;53.254;6.600;2023-12-04T11:19:45;2.40;99.90
51837;DHT22;38941;53.254;6.600;2023-12-04T11:21:51;2.40;99.90
51837;DHT22;38941;53.254;6.600;2023-12-04T11:23:54;2.40;99.90
51837;DHT22;38941;53.254;6.600;2023-12-04T11:25:55;2.40;99.90
51837;DHT22;38941;53.254;6.600;2023-12-04T11:27:58;2.90;99.90
51837;DHT22;38941;53.254;6.600;2023-12-04T11:29:59;2.40;99.90
51837;DHT22;38941;53.254;6.600;2023-12-04T11:32:05;2.50;99.90
51837;DHT22;38941;53.254;6.600;2023-12-04T11:34:08;2.50;99.90
51837;DHT22;38941;53.254;6.600;2023-12-04T11:36:12;2.50;99.90
51837;DHT22;38941;53.254;6.600;2023-12-04T11:38:14;2.50;99.90
51837;DHT22;38941;53.254;6.600;2023-12-04T11:40:16;2.50;99.90
51837;DHT22;38941;53.254;6.600;2023-12-04T11:42:22;2.60;99.90
51837;DHT22;38941;53.254;6.600;2023-12-04T11:44:27;2.50;99.90
51837;DHT22;38941;53.254;6.600;2023-12-04T11:46:29;2.50;99.90
51837;DHT22;38941;53.254;6.600;2023-12-04T11:48:33;2.50;99.90
51837;DHT22;38941;53.254;6.600;2023-12-04T11:50:34;2.50;99.90
51837;DHT22;38941;53.254;6.600;2023-12-04T11:52:37;2.90;99.90
51837;DHT22;38941;53.254;6.600;2023-12-04T11:59:08;2.60;99.90
51837;DHT22;38941;53.254;6.600;2023-12-04T12:01:10;2.60;99.90
51837;DHT22;38941;53.254;6.600;2023-12-04T12:03:14;2.60;99.90
51837;DHT22;38941;53.254;6.600;2023-12-04T12:05:16;2.50;99.90
51837;DHT22;38941;53.254;6.600;2023-12-04T12:07:19;2.60;99.90
51837;DHT22;38941;53.254;6.600;2023-12-04T12:09:23;2.50;99.90
51837;DHT22;38941;53.254;6.600;2023-12-04T12:11:27;2.50;99.90
51837;DHT22;38941;53.254;6.600;2023-12-04T12:13:27;2.50;99.90
51837;DHT22;38941;53.254;6.600;2023-12-04T12:15:28;2.50;99.90
51837;DHT22;38941;53.254;6.600;2023-12-04T12:17:30;2.40;99.90
51837;DHT22;38941;53.254;6.600;2023-12-04T12:19:32;2.30;99.90
51837;DHT22;38941;53.254;6.600;2023-12-04T12:21:32;2.30;99.90
51837;DHT22;38941;53.254;6.600;2023-12-04T12:23:33;2.30;99.90
51837;DHT22;38941;53.254;6.600;2023-12-04T12:25:38;2.20;99.90
51837;DHT22;38941;53.254;6.600;2023-12-04T12:27:40;2.20;99.90
51837;DHT22;38941;53.254;6.600;2023-12-04T12:29:41;2.10;99.90
51837;DHT22;38941;53.254;6.600;2023-12-04T12:31:42;2.20;99.90
51837;DHT22;38941;53.254;6.600;2023-12-04T12:33:42;3.40;99.90
51837;DHT22;38941;53.254;6.600;2023-12-04T12:35:43;2.20;99.90
51837;DHT22;38941;53.254;6.600;2023-12-04T12:37:45;2.30;99.90
51837;DHT22;38941;53.254;6.600;2023-12-04T12:39:46;2.20;99.90
51837;DHT22;38941;53.254;6.600;2023-12-04T12:41:49;2.20;99.90
51837;DHT22;38941;53.254;6.600;2023-12-04T12:43:51;2.20;99.90
51837;DHT22;38941;53.254;6.600;2023-12-04T12:45:55;2.20;99.90
51837;DHT22;38941;53.254;6.600;2023-12-04T12:47:56;2.10;99.90
51837;DHT22;38941;53.254;6.600;2023-12-04T12:50:01;2.10;99.90
51837;DHT22;38941;53.254;6.600;2023-12-04T12:52:05;2.20;99.90
51837;DHT22;38941;53.254;6.600;2023-12-04T12:54:09;2.10;99.90
51837;DHT22;38941;53.254;6.600;2023-12-04T12:56:10;2.10;99.90
51837;DHT22;38941;53.254;6.600;2023-12-04T12:58:14;2.00;99.90
51837;DHT22;38941;53.254;6.600;2023-12-04T13:00:16;2.00;99.90
51837;DHT22;38941;53.254;6.600;2023-12-04T13:02:20;2.00;99.90
51837;DHT22;38941;53.254;6.600;2023-12-04T13:04:20;2.00;99.90
51837;DHT22;38941;53.254;6.600;2023-12-04T13:06:24;2.10;99.90
51837;DHT22;38941;53.254;6.600;2023-12-04T13:08:26;2.00;99.90
51837;DHT22;38941;53.254;6.600;2023-12-04T13:10:26;2.00;99.90
51837;DHT22;38941;53.254;6.600;2023-12-04T13:12:27;2.00;99.90
51837;DHT22;38941;53.254;6.600;2023-12-04T13:14:29;2.00;99.90
51837;DHT22;38941;53.254;6.600;2023-12-04T13:16:30;2.60;99.90
51837;DHT22;38941;53.254;6.600;2023-12-04T13:18:31;1.90;99.90
51837;DHT22;38941;53.254;6.600;2023-12-04T13:20:36;2.00;99.90
51837;DHT22;38941;53.254;6.600;2023-12-04T13:22:37;1.90;99.90
51837;DHT22;38941;53.254;6.600;2023-12-04T13:24:39;1.90;99.90
51837;DHT22;38941;53.254;6.600;2023-12-04T13:26:41;1.90;99.90
51837;DHT22;38941;53.254;6.600;2023-12-04T13:28:43;1.90;99.90